sensor_id;sensor_type;location;lat;lon;timestamp;P1;durP1;ratioP1;P2;durP2;ratioP2
1879;SDS011;49285;49.002;8.390;2023-04-24T00:00:53;3.17;;;1.80;;
1879;SDS011;49285;49.002;8.390;2023-04-24T00:03:25;2.93;;;1.87;;
1879;SDS011;49285;49.002;8.390;2023-04-24T00:05:51;3.37;;;1.83;;
1879;SDS011;49285;49.002;8.390;2023-04-24T00:08:17;3.43;;;2.00;;
1879;SDS011;49285;49.002;8.390;2023-04-24T00:10:42;10.23;;;1.90;;
1879;SDS011;49285;49.002;8.390;2023-04-24T00:13:08;2.60;;;1.90;;
1879;SDS011;49285;49.002;8.390;2023-04-24T00:15:34;3.00;;;1.73;;
1879;SDS011;49285;49.002;8.390;2023-04-24T00:17:59;2.93;;;1.93;;
1879;SDS011;49285;49.002;8.390;2023-04-24T00:20:26;2.47;;;1.73;;
1879;SDS011;49285;49.002;8.390;2023-04-24T00:22:54;2.90;;;1.70;;
1879;SDS011;49285;49.002;8.390;2023-04-24T00:25:20;3.33;;;2.10;;
1879;SDS011;49285;49.002;8.390;2023-04-24T00:27:45;2.50;;;1.70;;
1879;SDS011;49285;49.002;8.390;2023-04-24T00:30:11;3.20;;;1.53;;
1879;SDS011;49285;49.002;8.390;2023-04-24T00:32:37;2.80;;;1.80;;
1879;SDS011;49285;49.002;8.390;2023-04-24T00:35:02;4.43;;;1.90;;
1879;SDS011;49285;49.002;8.390;2023-04-24T00:37:28;3.90;;;1.80;;
1879;SDS011;49285;49.002;8.390;2023-04-24T00:39:54;2.10;;;1.70;;
1879;SDS011;49285;49.002;8.390;2023-04-24T00:42:20;4.40;;;2.50;;
1879;SDS011;49285;49.002;8.390;2023-04-24T00:44:45;1.93;;;1.50;;
1879;SDS011;49285;49.002;8.390;2023-04-24T00:47:11;3.33;;;1.77;;
1879;SDS011;49285;49.002;8.390;2023-04-24T00:49:38;3.97;;;1.87;;
1879;SDS011;49285;49.002;8.390;2023-04-24T00:52:03;2.70;;;1.73;;
1879;SDS011;49285;49.002;8.390;2023-04-24T00:54:32;3.80;;;1.97;;
1879;SDS011;49285;49.002;8.390;2023-04-24T00:56:58;3.60;;;1.93;;
1879;SDS011;49285;49.002;8.390;2023-04-24T00:59:23;4.00;;;1.90;;
1879;SDS011;49285;49.002;8.390;2023-04-24T01:01:49;4.67;;;1.80;;
1879;SDS011;49285;49.002;8.390;2023-04-24T01:04:15;5.00;;;1.97;;
1879;SDS011;49285;49.002;8.390;2023-04-24T01:06:42;4.23;;;1.80;;
1879;SDS011;49285;49.002;8.390;2023-04-24T01:09:09;4.10;;;1.80;;
1879;SDS011;49285;49.002;8.390;2023-04-24T01:11:36;4.13;;;2.07;;
1879;SDS011;49285;49.002;8.390;2023-04-24T01:14:02;2.30;;;1.90;;
1879;SDS011;49285;49.002;8.390;2023-04-24T01:16:28;1.97;;;1.63;;
1879;SDS011;49285;49.002;8.390;2023-04-24T01:18:54;1.90;;;1.57;;
1879;SDS011;49285;49.002;8.390;2023-04-24T01:21:19;10.50;;;2.53;;
1879;SDS011;49285;49.002;8.390;2023-04-24T01:23:46;2.30;;;1.60;;
1879;SDS011;49285;49.002;8.390;2023-04-24T01:26:12;5.93;;;1.73;;
1879;SDS011;49285;49.002;8.390;2023-04-24T01:28:42;2.13;;;1.57;;
1879;SDS011;49285;49.002;8.390;2023-04-24T01:31:07;2.40;;;2.00;;
1879;SDS011;49285;49.002;8.390;2023-04-24T01:33:34;3.17;;;1.80;;
1879;SDS011;49285;49.002;8.390;2023-04-24T01:35:59;3.03;;;1.87;;
1879;SDS011;49285;49.002;8.390;2023-04-24T01:38:25;5.23;;;1.93;;
1879;SDS011;49285;49.002;8.390;2023-04-24T01:40:51;2.67;;;1.80;;
1879;SDS011;49285;49.002;8.390;2023-04-24T01:43:18;2.47;;;1.87;;
1879;SDS011;49285;49.002;8.390;2023-04-24T01:45:43;2.90;;;1.87;;
1879;SDS011;49285;49.002;8.390;2023-04-24T01:48:09;2.53;;;1.90;;
1879;SDS011;49285;49.002;8.390;2023-04-24T01:50:36;4.77;;;1.80;;
1879;SDS011;49285;49.002;8.390;2023-04-24T01:53:01;2.40;;;2.00;;
1879;SDS011;49285;49.002;8.390;2023-04-24T01:55:27;1.93;;;1.50;;
1879;SDS011;49285;49.002;8.390;2023-04-24T01:57:52;3.13;;;1.77;;
1879;SDS011;49285;49.002;8.390;2023-04-24T02:00:20;2.23;;;1.63;;
1879;SDS011;49285;49.002;8.390;2023-04-24T02:02:46;6.60;;;2.10;;
1879;SDS011;49285;49.002;8.390;2023-04-24T02:05:12;2.70;;;2.03;;
1879;SDS011;49285;49.002;8.390;2023-04-24T02:07:37;2.50;;;1.80;;
1879;SDS011;49285;49.002;8.390;2023-04-24T02:10:03;3.33;;;2.20;;
1879;SDS011;49285;49.002;8.390;2023-04-24T02:12:29;4.33;;;2.30;;
1879;SDS011;49285;49.002;8.390;2023-04-24T02:14:55;2.30;;;1.57;;
1879;SDS011;49285;49.002;8.390;2023-04-24T02:17:20;2.17;;;1.80;;
1879;SDS011;49285;49.002;8.390;2023-04-24T02:19:46;2.73;;;1.90;;
1879;SDS011;49285;49.002;8.390;2023-04-24T02:22:12;2.90;;;1.77;;
1879;SDS011;49285;49.002;8.390;2023-04-24T02:24:38;2.33;;;1.47;;
1879;SDS011;49285;49.002;8.390;2023-04-24T02:27:03;2.20;;;1.50;;
1879;SDS011;49285;49.002;8.390;2023-04-24T02:29:29;3.63;;;2.07;;
1879;SDS011;49285;49.002;8.390;2023-04-24T02:31:55;3.50;;;1.60;;
1879;SDS011;49285;49.002;8.390;2023-04-24T02:34:21;4.03;;;1.93;;
1879;SDS011;49285;49.002;8.390;2023-04-24T02:36:48;3.23;;;1.77;;
1879;SDS011;49285;49.002;8.390;2023-04-24T02:39:13;3.70;;;2.00;;
1879;SDS011;49285;49.002;8.390;2023-04-24T02:41:41;2.40;;;1.87;;
1879;SDS011;49285;49.002;8.390;2023-04-24T02:44:07;2.20;;;1.50;;
1879;SDS011;49285;49.002;8.390;2023-04-24T02:46:33;2.10;;;1.50;;
1879;SDS011;49285;49.002;8.390;2023-04-24T02:48:58;2.50;;;1.73;;
1879;SDS011;49285;49.002;8.390;2023-04-24T02:51:24;2.57;;;1.87;;
1879;SDS011;49285;49.002;8.390;2023-04-24T02:53:50;3.60;;;1.67;;
1879;SDS011;49285;49.002;8.390;2023-04-24T02:56:15;3.93;;;2.07;;
1879;SDS011;49285;49.002;8.390;2023-04-24T02:58:41;3.93;;;1.90;;
1879;SDS011;49285;49.002;8.390;2023-04-24T03:01:07;4.90;;;2.53;;
1879;SDS011;49285;49.002;8.390;2023-04-24T03:03:34;4.17;;;1.83;;
1879;SDS011;49285;49.002;8.390;2023-04-24T03:06:00;2.60;;;1.63;;
1879;SDS011;49285;49.002;8.390;2023-04-24T03:08:26;2.97;;;1.93;;
1879;SDS011;49285;49.002;8.390;2023-04-24T03:10:52;3.87;;;1.90;;
1879;SDS011;49285;49.002;8.390;2023-04-24T03:13:17;2.40;;;1.83;;
1879;SDS011;49285;49.002;8.390;2023-04-24T03:15:43;3.63;;;1.63;;
1879;SDS011;49285;49.002;8.390;2023-04-24T03:18:10;3.20;;;1.57;;
1879;SDS011;49285;49.002;8.390;2023-04-24T03:20:35;2.50;;;1.80;;
1879;SDS011;49285;49.002;8.390;2023-04-24T03:23:02;2.77;;;1.70;;
1879;SDS011;49285;49.002;8.390;2023-04-24T03:25:28;2.10;;;1.60;;
1879;SDS011;49285;49.002;8.390;2023-04-24T03:27:53;3.50;;;2.03;;
1879;SDS011;49285;49.002;8.390;2023-04-24T03:30:19;2.93;;;1.80;;
1879;SDS011;49285;49.002;8.390;2023-04-24T03:32:45;3.83;;;2.00;;
1879;SDS011;49285;49.002;8.390;2023-04-24T03:35:11;3.00;;;1.80;;
1879;SDS011;49285;49.002;8.390;2023-04-24T03:37:36;3.60;;;1.83;;
1879;SDS011;49285;49.002;8.390;2023-04-24T03:40:02;2.40;;;1.90;;
1879;SDS011;49285;49.002;8.390;2023-04-24T03:42:28;3.37;;;2.03;;
1879;SDS011;49285;49.002;8.390;2023-04-24T03:44:54;3.03;;;2.30;;
1879;SDS011;49285;49.002;8.390;2023-04-24T03:47:19;3.23;;;2.13;;
1879;SDS011;49285;49.002;8.390;2023-04-24T03:49:45;3.77;;;2.07;;
1879;SDS011;49285;49.002;8.390;2023-04-24T03:52:10;4.40;;;2.10;;
1879;SDS011;49285;49.002;8.390;2023-04-24T03:54:36;2.87;;;2.20;;
1879;SDS011;49285;49.002;8.390;2023-04-24T03:57:01;3.40;;;2.20;;
1879;SDS011;49285;49.002;8.390;2023-04-24T03:59:28;3.50;;;2.30;;
1879;SDS011;49285;49.002;8.390;2023-04-24T04:01:53;2.67;;;1.87;;
1879;SDS011;49285;49.002;8.390;2023-04-24T04:04:19;5.73;;;2.10;;
1879;SDS011;49285;49.002;8.390;2023-04-24T04:06:45;8.00;;;2.60;;
1879;SDS011;49285;49.002;8.390;2023-04-24T04:09:11;2.50;;;1.97;;
1879;SDS011;49285;49.002;8.390;2023-04-24T04:11:37;3.40;;;2.10;;
1879;SDS011;49285;49.002;8.390;2023-04-24T04:14:02;2.77;;;2.20;;
1879;SDS011;49285;49.002;8.390;2023-04-24T04:16:28;3.27;;;1.90;;
1879;SDS011;49285;49.002;8.390;2023-04-24T04:18:54;3.37;;;2.40;;
1879;SDS011;49285;49.002;8.390;2023-04-24T04:21:20;2.83;;;2.03;;
1879;SDS011;49285;49.002;8.390;2023-04-24T04:23:45;3.60;;;2.33;;
1879;SDS011;49285;49.002;8.390;2023-04-24T04:26:11;3.73;;;2.07;;
1879;SDS011;49285;49.002;8.390;2023-04-24T04:28:40;3.40;;;2.30;;
1879;SDS011;49285;49.002;8.390;2023-04-24T04:31:06;3.37;;;2.60;;
1879;SDS011;49285;49.002;8.390;2023-04-24T04:33:32;2.90;;;2.37;;
1879;SDS011;49285;49.002;8.390;2023-04-24T04:35:58;2.30;;;2.07;;
1879;SDS011;49285;49.002;8.390;2023-04-24T04:38:25;2.80;;;2.40;;
1879;SDS011;49285;49.002;8.390;2023-04-24T04:40:54;2.50;;;2.17;;
1879;SDS011;49285;49.002;8.390;2023-04-24T04:43:21;2.97;;;2.50;;
1879;SDS011;49285;49.002;8.390;2023-04-24T04:45:47;3.43;;;2.50;;
1879;SDS011;49285;49.002;8.390;2023-04-24T04:48:13;4.93;;;3.10;;
1879;SDS011;49285;49.002;8.390;2023-04-24T04:50:39;4.30;;;2.70;;
1879;SDS011;49285;49.002;8.390;2023-04-24T04:53:05;9.40;;;2.53;;
1879;SDS011;49285;49.002;8.390;2023-04-24T04:55:31;3.67;;;2.27;;
1879;SDS011;49285;49.002;8.390;2023-04-24T04:57:57;3.50;;;2.63;;
1879;SDS011;49285;49.002;8.390;2023-04-24T05:00:22;3.87;;;2.63;;
1879;SDS011;49285;49.002;8.390;2023-04-24T05:02:51;3.53;;;3.00;;
1879;SDS011;49285;49.002;8.390;2023-04-24T05:05:17;3.67;;;3.13;;
1879;SDS011;49285;49.002;8.390;2023-04-24T05:07:43;3.60;;;2.57;;
1879;SDS011;49285;49.002;8.390;2023-04-24T05:10:09;3.97;;;2.47;;
1879;SDS011;49285;49.002;8.390;2023-04-24T05:12:34;3.30;;;2.23;;
1879;SDS011;49285;49.002;8.390;2023-04-24T05:15:00;3.77;;;3.13;;
1879;SDS011;49285;49.002;8.390;2023-04-24T05:17:25;3.33;;;3.00;;
1879;SDS011;49285;49.002;8.390;2023-04-24T05:19:51;3.40;;;3.10;;
1879;SDS011;49285;49.002;8.390;2023-04-24T05:22:17;3.67;;;2.80;;
1879;SDS011;49285;49.002;8.390;2023-04-24T05:24:45;3.70;;;2.57;;
1879;SDS011;49285;49.002;8.390;2023-04-24T05:27:11;4.60;;;2.90;;
1879;SDS011;49285;49.002;8.390;2023-04-24T05:29:37;3.20;;;2.90;;
1879;SDS011;49285;49.002;8.390;2023-04-24T05:32:03;4.00;;;2.87;;
1879;SDS011;49285;49.002;8.390;2023-04-24T05:34:28;2.97;;;2.67;;
1879;SDS011;49285;49.002;8.390;2023-04-24T05:36:54;3.20;;;2.63;;
1879;SDS011;49285;49.002;8.390;2023-04-24T05:39:20;5.63;;;3.40;;
1879;SDS011;49285;49.002;8.390;2023-04-24T05:41:46;2.60;;;2.10;;
1879;SDS011;49285;49.002;8.390;2023-04-24T05:44:11;3.13;;;2.60;;
1879;SDS011;49285;49.002;8.390;2023-04-24T05:46:37;3.90;;;3.03;;
1879;SDS011;49285;49.002;8.390;2023-04-24T05:49:02;4.47;;;2.67;;
1879;SDS011;49285;49.002;8.390;2023-04-24T05:51:28;5.13;;;2.73;;
1879;SDS011;49285;49.002;8.390;2023-04-24T05:53:54;3.40;;;2.60;;
1879;SDS011;49285;49.002;8.390;2023-04-24T05:56:19;3.40;;;2.90;;
1879;SDS011;49285;49.002;8.390;2023-04-24T05:58:45;4.00;;;3.13;;
1879;SDS011;49285;49.002;8.390;2023-04-24T06:01:12;10.23;;;2.90;;
1879;SDS011;49285;49.002;8.390;2023-04-24T06:03:40;2.67;;;2.47;;
1879;SDS011;49285;49.002;8.390;2023-04-24T06:06:06;5.03;;;2.50;;
1879;SDS011;49285;49.002;8.390;2023-04-24T06:08:32;3.00;;;2.60;;
1879;SDS011;49285;49.002;8.390;2023-04-24T06:10:58;3.40;;;2.50;;
1879;SDS011;49285;49.002;8.390;2023-04-24T06:13:23;3.63;;;2.97;;
1879;SDS011;49285;49.002;8.390;2023-04-24T06:15:49;3.20;;;2.27;;
1879;SDS011;49285;49.002;8.390;2023-04-24T06:18:15;3.90;;;3.20;;
1879;SDS011;49285;49.002;8.390;2023-04-24T06:20:40;3.50;;;2.50;;
1879;SDS011;49285;49.002;8.390;2023-04-24T06:23:06;5.00;;;3.30;;
1879;SDS011;49285;49.002;8.390;2023-04-24T06:25:31;3.83;;;3.43;;
1879;SDS011;49285;49.002;8.390;2023-04-24T06:27:57;3.07;;;2.67;;
1879;SDS011;49285;49.002;8.390;2023-04-24T06:30:23;3.67;;;2.80;;
1879;SDS011;49285;49.002;8.390;2023-04-24T06:32:48;3.13;;;2.83;;
1879;SDS011;49285;49.002;8.390;2023-04-24T06:35:14;6.10;;;3.20;;
1879;SDS011;49285;49.002;8.390;2023-04-24T06:37:40;3.17;;;2.80;;
1879;SDS011;49285;49.002;8.390;2023-04-24T06:40:07;4.30;;;3.53;;
1879;SDS011;49285;49.002;8.390;2023-04-24T06:42:33;4.90;;;3.60;;
1879;SDS011;49285;49.002;8.390;2023-04-24T06:45:00;4.07;;;2.80;;
1879;SDS011;49285;49.002;8.390;2023-04-24T06:47:26;4.60;;;3.13;;
1879;SDS011;49285;49.002;8.390;2023-04-24T06:49:51;3.73;;;3.03;;
1879;SDS011;49285;49.002;8.390;2023-04-24T06:52:18;4.10;;;3.47;;
1879;SDS011;49285;49.002;8.390;2023-04-24T06:54:44;5.40;;;3.30;;
1879;SDS011;49285;49.002;8.390;2023-04-24T06:57:09;3.90;;;3.50;;
1879;SDS011;49285;49.002;8.390;2023-04-24T06:59:35;3.47;;;2.70;;
1879;SDS011;49285;49.002;8.390;2023-04-24T07:02:01;4.57;;;2.87;;
1879;SDS011;49285;49.002;8.390;2023-04-24T07:04:27;4.07;;;3.00;;
1879;SDS011;49285;49.002;8.390;2023-04-24T07:06:53;5.07;;;3.20;;
1879;SDS011;49285;49.002;8.390;2023-04-24T07:09:23;2.93;;;2.63;;
1879;SDS011;49285;49.002;8.390;2023-04-24T07:11:50;4.00;;;3.10;;
1879;SDS011;49285;49.002;8.390;2023-04-24T07:14:18;3.67;;;3.10;;
1879;SDS011;49285;49.002;8.390;2023-04-24T07:16:45;5.13;;;3.33;;
1879;SDS011;49285;49.002;8.390;2023-04-24T07:19:11;3.90;;;2.90;;
1879;SDS011;49285;49.002;8.390;2023-04-24T07:21:37;7.93;;;3.60;;
1879;SDS011;49285;49.002;8.390;2023-04-24T07:24:03;3.37;;;3.07;;
1879;SDS011;49285;49.002;8.390;2023-04-24T07:26:29;3.63;;;3.23;;
1879;SDS011;49285;49.002;8.390;2023-04-24T07:28:55;3.80;;;3.10;;
1879;SDS011;49285;49.002;8.390;2023-04-24T07:31:21;3.90;;;2.90;;
1879;SDS011;49285;49.002;8.390;2023-04-24T07:33:47;3.17;;;2.50;;
1879;SDS011;49285;49.002;8.390;2023-04-24T07:36:13;5.50;;;3.07;;
1879;SDS011;49285;49.002;8.390;2023-04-24T07:38:43;3.00;;;2.70;;
1879;SDS011;49285;49.002;8.390;2023-04-24T07:41:14;3.10;;;2.50;;
1879;SDS011;49285;49.002;8.390;2023-04-24T07:43:40;4.83;;;2.50;;
1879;SDS011;49285;49.002;8.390;2023-04-24T07:46:07;4.30;;;2.60;;
1879;SDS011;49285;49.002;8.390;2023-04-24T07:48:36;3.30;;;2.57;;
1879;SDS011;49285;49.002;8.390;2023-04-24T07:51:01;5.73;;;2.30;;
1879;SDS011;49285;49.002;8.390;2023-04-24T07:53:27;5.73;;;2.70;;
1879;SDS011;49285;49.002;8.390;2023-04-24T07:55:54;2.53;;;2.27;;
1879;SDS011;49285;49.002;8.390;2023-04-24T07:58:20;3.20;;;2.57;;
1879;SDS011;49285;49.002;8.390;2023-04-24T08:00:46;5.10;;;3.00;;
1879;SDS011;49285;49.002;8.390;2023-04-24T08:03:12;7.73;;;2.93;;
1879;SDS011;49285;49.002;8.390;2023-04-24T08:05:37;4.10;;;2.73;;
1879;SDS011;49285;49.002;8.390;2023-04-24T08:08:03;3.43;;;2.80;;
1879;SDS011;49285;49.002;8.390;2023-04-24T08:10:29;3.03;;;2.43;;
1879;SDS011;49285;49.002;8.390;2023-04-24T08:12:55;4.53;;;2.50;;
1879;SDS011;49285;49.002;8.390;2023-04-24T08:15:21;5.70;;;2.93;;
1879;SDS011;49285;49.002;8.390;2023-04-24T08:17:46;3.00;;;2.60;;
1879;SDS011;49285;49.002;8.390;2023-04-24T08:20:12;3.20;;;2.80;;
1879;SDS011;49285;49.002;8.390;2023-04-24T08:22:41;3.23;;;2.67;;
1879;SDS011;49285;49.002;8.390;2023-04-24T08:25:07;3.13;;;2.60;;
1879;SDS011;49285;49.002;8.390;2023-04-24T08:27:34;2.70;;;2.50;;
1879;SDS011;49285;49.002;8.390;2023-04-24T08:30:01;2.97;;;2.20;;
1879;SDS011;49285;49.002;8.390;2023-04-24T08:32:28;2.50;;;2.20;;
1879;SDS011;49285;49.002;8.390;2023-04-24T08:34:54;2.70;;;2.50;;
1879;SDS011;49285;49.002;8.390;2023-04-24T08:37:23;2.30;;;2.00;;
1879;SDS011;49285;49.002;8.390;2023-04-24T08:39:50;3.93;;;2.83;;
1879;SDS011;49285;49.002;8.390;2023-04-24T08:42:17;3.83;;;2.27;;
1879;SDS011;49285;49.002;8.390;2023-04-24T08:44:43;3.83;;;2.50;;
1879;SDS011;49285;49.002;8.390;2023-04-24T08:47:09;5.27;;;2.30;;
1879;SDS011;49285;49.002;8.390;2023-04-24T08:49:36;4.70;;;2.93;;
1879;SDS011;49285;49.002;8.390;2023-04-24T08:52:02;3.73;;;2.50;;
1879;SDS011;49285;49.002;8.390;2023-04-24T08:54:28;3.03;;;2.47;;
1879;SDS011;49285;49.002;8.390;2023-04-24T08:56:55;2.80;;;2.47;;
1879;SDS011;49285;49.002;8.390;2023-04-24T08:59:27;4.73;;;2.80;;
1879;SDS011;49285;49.002;8.390;2023-04-24T09:01:53;2.97;;;2.50;;
1879;SDS011;49285;49.002;8.390;2023-04-24T09:04:20;4.03;;;2.80;;
1879;SDS011;49285;49.002;8.390;2023-04-24T09:06:49;3.13;;;2.70;;
1879;SDS011;49285;49.002;8.390;2023-04-24T09:09:16;4.07;;;2.83;;
1879;SDS011;49285;49.002;8.390;2023-04-24T09:11:42;3.40;;;3.10;;
1879;SDS011;49285;49.002;8.390;2023-04-24T09:14:09;3.90;;;2.60;;
1879;SDS011;49285;49.002;8.390;2023-04-24T09:16:35;5.60;;;2.83;;
1879;SDS011;49285;49.002;8.390;2023-04-24T09:19:01;3.17;;;2.50;;
1879;SDS011;49285;49.002;8.390;2023-04-24T09:21:31;2.83;;;2.47;;
1879;SDS011;49285;49.002;8.390;2023-04-24T09:23:59;3.20;;;2.90;;
1879;SDS011;49285;49.002;8.390;2023-04-24T09:26:29;4.20;;;2.80;;
1879;SDS011;49285;49.002;8.390;2023-04-24T09:28:56;4.20;;;2.97;;
1879;SDS011;49285;49.002;8.390;2023-04-24T09:31:22;3.43;;;3.13;;
1879;SDS011;49285;49.002;8.390;2023-04-24T09:33:55;5.43;;;3.50;;
1879;SDS011;49285;49.002;8.390;2023-04-24T09:36:27;6.83;;;3.37;;
1879;SDS011;49285;49.002;8.390;2023-04-24T09:38:57;4.73;;;3.57;;
1879;SDS011;49285;49.002;8.390;2023-04-24T09:41:24;4.80;;;3.50;;
1879;SDS011;49285;49.002;8.390;2023-04-24T09:43:50;4.83;;;4.10;;
1879;SDS011;49285;49.002;8.390;2023-04-24T09:46:19;4.50;;;4.10;;
1879;SDS011;49285;49.002;8.390;2023-04-24T09:48:46;5.57;;;4.20;;
1879;SDS011;49285;49.002;8.390;2023-04-24T09:51:12;4.30;;;3.90;;
1879;SDS011;49285;49.002;8.390;2023-04-24T09:53:38;4.63;;;3.97;;
1879;SDS011;49285;49.002;8.390;2023-04-24T09:56:07;5.10;;;4.10;;
1879;SDS011;49285;49.002;8.390;2023-04-24T09:58:34;4.13;;;3.73;;
1879;SDS011;49285;49.002;8.390;2023-04-24T10:01:01;3.83;;;3.53;;
1879;SDS011;49285;49.002;8.390;2023-04-24T10:03:29;7.33;;;3.73;;
1879;SDS011;49285;49.002;8.390;2023-04-24T10:05:58;3.90;;;3.17;;
1879;SDS011;49285;49.002;8.390;2023-04-24T10:08:24;5.37;;;3.47;;
1879;SDS011;49285;49.002;8.390;2023-04-24T10:10:51;4.83;;;3.17;;
1879;SDS011;49285;49.002;8.390;2023-04-24T10:13:17;4.17;;;3.50;;
1879;SDS011;49285;49.002;8.390;2023-04-24T10:15:43;3.40;;;3.10;;
1879;SDS011;49285;49.002;8.390;2023-04-24T10:18:09;4.33;;;3.20;;
1879;SDS011;49285;49.002;8.390;2023-04-24T10:20:36;4.20;;;3.40;;
1879;SDS011;49285;49.002;8.390;2023-04-24T10:23:02;3.20;;;2.87;;
1879;SDS011;49285;49.002;8.390;2023-04-24T10:25:30;5.13;;;3.30;;
1879;SDS011;49285;49.002;8.390;2023-04-24T10:28:00;4.40;;;3.67;;
1879;SDS011;49285;49.002;8.390;2023-04-24T10:30:28;3.63;;;2.97;;
1879;SDS011;49285;49.002;8.390;2023-04-24T10:33:01;3.37;;;2.97;;
1879;SDS011;49285;49.002;8.390;2023-04-24T10:35:29;3.50;;;3.20;;
1879;SDS011;49285;49.002;8.390;2023-04-24T10:40:27;4.40;;;3.80;;
1879;SDS011;49285;49.002;8.390;2023-04-24T10:42:57;5.07;;;3.33;;
1879;SDS011;49285;49.002;8.390;2023-04-24T10:45:23;4.40;;;3.53;;
1879;SDS011;49285;49.002;8.390;2023-04-24T10:47:53;4.30;;;3.90;;
1879;SDS011;49285;49.002;8.390;2023-04-24T10:50:22;4.00;;;3.57;;
1879;SDS011;49285;49.002;8.390;2023-04-24T10:52:48;4.83;;;3.90;;
1879;SDS011;49285;49.002;8.390;2023-04-24T10:55:39;3.70;;;3.40;;
1879;SDS011;49285;49.002;8.390;2023-04-24T10:58:15;5.40;;;4.37;;
1879;SDS011;49285;49.002;8.390;2023-04-24T11:00:42;4.97;;;3.93;;
1879;SDS011;49285;49.002;8.390;2023-04-24T11:03:24;3.87;;;3.20;;
1879;SDS011;49285;49.002;8.390;2023-04-24T11:05:58;4.87;;;3.63;;
1879;SDS011;49285;49.002;8.390;2023-04-24T11:08:37;4.47;;;4.07;;
1879;SDS011;49285;49.002;8.390;2023-04-24T11:16:27;5.47;;;4.50;;
1879;SDS011;49285;49.002;8.390;2023-04-24T11:21:57;4.60;;;4.10;;
1879;SDS011;49285;49.002;8.390;2023-04-24T11:27:13;5.80;;;5.10;;
1879;SDS011;49285;49.002;8.390;2023-04-24T11:32:15;6.00;;;5.33;;
1879;SDS011;49285;49.002;8.390;2023-04-24T11:34:53;7.03;;;5.17;;
1879;SDS011;49285;49.002;8.390;2023-04-24T11:37:53;5.93;;;5.00;;
1879;SDS011;49285;49.002;8.390;2023-04-24T11:40:20;5.83;;;5.33;;
1879;SDS011;49285;49.002;8.390;2023-04-24T11:42:51;5.50;;;4.70;;
1879;SDS011;49285;49.002;8.390;2023-04-24T11:47:47;6.00;;;5.50;;
1879;SDS011;49285;49.002;8.390;2023-04-24T11:50:16;6.20;;;5.60;;
1879;SDS011;49285;49.002;8.390;2023-04-24T11:52:44;6.57;;;5.87;;
1879;SDS011;49285;49.002;8.390;2023-04-24T11:57:43;8.50;;;6.37;;
1879;SDS011;49285;49.002;8.390;2023-04-24T12:00:25;7.77;;;5.60;;
1879;SDS011;49285;49.002;8.390;2023-04-24T12:05:30;5.63;;;4.83;;
1879;SDS011;49285;49.002;8.390;2023-04-24T12:07:56;7.67;;;4.90;;
1879;SDS011;49285;49.002;8.390;2023-04-24T12:10:26;4.97;;;4.20;;
1879;SDS011;49285;49.002;8.390;2023-04-24T12:12:53;4.87;;;4.27;;
1879;SDS011;49285;49.002;8.390;2023-04-24T12:15:20;5.57;;;4.13;;
1879;SDS011;49285;49.002;8.390;2023-04-24T12:17:46;4.13;;;3.57;;
1879;SDS011;49285;49.002;8.390;2023-04-24T12:20:13;6.67;;;4.30;;
1879;SDS011;49285;49.002;8.390;2023-04-24T12:22:43;5.30;;;4.07;;
1879;SDS011;49285;49.002;8.390;2023-04-24T12:25:10;11.43;;;4.80;;
1879;SDS011;49285;49.002;8.390;2023-04-24T12:27:36;4.37;;;3.97;;
1879;SDS011;49285;49.002;8.390;2023-04-24T12:30:02;5.27;;;4.77;;
1879;SDS011;49285;49.002;8.390;2023-04-24T12:32:31;4.60;;;4.20;;
1879;SDS011;49285;49.002;8.390;2023-04-24T12:34:57;4.83;;;4.40;;
1879;SDS011;49285;49.002;8.390;2023-04-24T12:37:24;5.50;;;4.70;;
1879;SDS011;49285;49.002;8.390;2023-04-24T12:40:01;4.97;;;4.40;;
1879;SDS011;49285;49.002;8.390;2023-04-24T12:42:30;4.97;;;4.53;;
1879;SDS011;49285;49.002;8.390;2023-04-24T12:45:00;5.73;;;4.63;;
1879;SDS011;49285;49.002;8.390;2023-04-24T12:47:30;5.27;;;4.80;;
1879;SDS011;49285;49.002;8.390;2023-04-24T12:49:57;4.80;;;4.30;;
1879;SDS011;49285;49.002;8.390;2023-04-24T12:52:23;7.57;;;4.90;;
1879;SDS011;49285;49.002;8.390;2023-04-24T12:54:51;5.73;;;4.30;;
1879;SDS011;49285;49.002;8.390;2023-04-24T12:57:18;4.70;;;4.30;;
1879;SDS011;49285;49.002;8.390;2023-04-24T12:59:43;5.63;;;5.13;;
1879;SDS011;49285;49.002;8.390;2023-04-24T13:02:10;5.27;;;4.70;;
1879;SDS011;49285;49.002;8.390;2023-04-24T13:04:36;5.30;;;4.80;;
1879;SDS011;49285;49.002;8.390;2023-04-24T13:07:02;6.90;;;4.73;;
1879;SDS011;49285;49.002;8.390;2023-04-24T13:09:27;5.60;;;4.70;;
1879;SDS011;49285;49.002;8.390;2023-04-24T13:11:53;5.10;;;4.53;;
1879;SDS011;49285;49.002;8.390;2023-04-24T13:14:20;5.17;;;4.60;;
1879;SDS011;49285;49.002;8.390;2023-04-24T13:16:45;5.03;;;4.53;;
1879;SDS011;49285;49.002;8.390;2023-04-24T13:19:11;4.80;;;4.30;;
1879;SDS011;49285;49.002;8.390;2023-04-24T13:21:36;7.50;;;5.13;;
1879;SDS011;49285;49.002;8.390;2023-04-24T13:24:02;4.67;;;4.27;;
1879;SDS011;49285;49.002;8.390;2023-04-24T13:26:29;5.80;;;4.83;;
1879;SDS011;49285;49.002;8.390;2023-04-24T13:28:55;5.30;;;4.70;;
1879;SDS011;49285;49.002;8.390;2023-04-24T13:31:21;4.97;;;4.47;;
1879;SDS011;49285;49.002;8.390;2023-04-24T13:33:46;5.57;;;4.77;;
1879;SDS011;49285;49.002;8.390;2023-04-24T13:36:12;5.53;;;4.43;;
1879;SDS011;49285;49.002;8.390;2023-04-24T13:38:38;4.83;;;4.30;;
1879;SDS011;49285;49.002;8.390;2023-04-24T13:41:03;7.60;;;5.03;;
1879;SDS011;49285;49.002;8.390;2023-04-24T13:43:29;5.07;;;4.27;;
1879;SDS011;49285;49.002;8.390;2023-04-24T13:45:55;5.90;;;4.50;;
1879;SDS011;49285;49.002;8.390;2023-04-24T13:48:20;5.00;;;4.50;;
1879;SDS011;49285;49.002;8.390;2023-04-24T13:50:46;4.83;;;4.33;;
1879;SDS011;49285;49.002;8.390;2023-04-24T13:53:14;4.63;;;4.13;;
1879;SDS011;49285;49.002;8.390;2023-04-24T13:55:40;5.07;;;4.13;;
1879;SDS011;49285;49.002;8.390;2023-04-24T13:58:05;4.70;;;4.20;;
1879;SDS011;49285;49.002;8.390;2023-04-24T14:00:31;4.53;;;3.90;;
1879;SDS011;49285;49.002;8.390;2023-04-24T14:02:57;4.00;;;3.70;;
1879;SDS011;49285;49.002;8.390;2023-04-24T14:05:22;4.60;;;3.40;;
1879;SDS011;49285;49.002;8.390;2023-04-24T14:07:48;4.40;;;3.90;;
1879;SDS011;49285;49.002;8.390;2023-04-24T14:10:14;4.37;;;3.60;;
1879;SDS011;49285;49.002;8.390;2023-04-24T14:12:39;6.70;;;3.80;;
1879;SDS011;49285;49.002;8.390;2023-04-24T14:15:05;5.87;;;3.47;;
1879;SDS011;49285;49.002;8.390;2023-04-24T14:17:31;8.93;;;4.00;;
1879;SDS011;49285;49.002;8.390;2023-04-24T14:19:57;7.20;;;4.63;;
1879;SDS011;49285;49.002;8.390;2023-04-24T14:22:24;7.00;;;4.57;;
1879;SDS011;49285;49.002;8.390;2023-04-24T14:24:50;5.13;;;3.50;;
1879;SDS011;49285;49.002;8.390;2023-04-24T14:27:16;4.57;;;4.07;;
1879;SDS011;49285;49.002;8.390;2023-04-24T14:29:41;5.30;;;4.30;;
1879;SDS011;49285;49.002;8.390;2023-04-24T14:32:07;4.60;;;4.20;;
1879;SDS011;49285;49.002;8.390;2023-04-24T14:34:33;4.10;;;3.70;;
1879;SDS011;49285;49.002;8.390;2023-04-24T14:36:59;5.83;;;4.67;;
1879;SDS011;49285;49.002;8.390;2023-04-24T14:39:25;5.33;;;4.07;;
1879;SDS011;49285;49.002;8.390;2023-04-24T14:41:51;3.80;;;3.40;;
1879;SDS011;49285;49.002;8.390;2023-04-24T14:44:16;3.40;;;3.10;;
1879;SDS011;49285;49.002;8.390;2023-04-24T14:46:42;5.10;;;3.27;;
1879;SDS011;49285;49.002;8.390;2023-04-24T14:49:08;3.67;;;3.10;;
1879;SDS011;49285;49.002;8.390;2023-04-24T14:51:34;3.70;;;3.30;;
1879;SDS011;49285;49.002;8.390;2023-04-24T14:54:00;3.80;;;3.27;;
1879;SDS011;49285;49.002;8.390;2023-04-24T14:56:26;3.73;;;3.43;;
1879;SDS011;49285;49.002;8.390;2023-04-24T14:58:52;3.70;;;3.23;;
1879;SDS011;49285;49.002;8.390;2023-04-24T15:01:18;4.90;;;3.57;;
1879;SDS011;49285;49.002;8.390;2023-04-24T15:03:43;3.50;;;3.20;;
1879;SDS011;49285;49.002;8.390;2023-04-24T15:06:09;3.60;;;3.30;;
1879;SDS011;49285;49.002;8.390;2023-04-24T15:08:34;3.33;;;3.03;;
1879;SDS011;49285;49.002;8.390;2023-04-24T15:11:00;3.20;;;2.90;;
1879;SDS011;49285;49.002;8.390;2023-04-24T15:13:26;3.60;;;3.30;;
1879;SDS011;49285;49.002;8.390;2023-04-24T15:15:51;3.53;;;3.23;;
1879;SDS011;49285;49.002;8.390;2023-04-24T15:18:17;3.20;;;2.90;;
1879;SDS011;49285;49.002;8.390;2023-04-24T15:20:43;4.77;;;3.13;;